Time;durP1;ratioP1;P1;durP2;ratioP2;P2;SDS_P1;SDS_P2;PMS_P1;PMS_P2;Temp;Humidity;BMP_temperature;BMP_pressure;BME280_temperature;BME280_humidity;BME280_pressure;Samples;Min_cycle;Max_cycle;Signal;HPM_P1;HPM_P2
2023/01/18 00:01:51;;;;;;;8.57;2.42;;;2.90;99.90;;;;;;5079410;28;20417;-72
2023/01/18 00:04:17;;;;;;;6.93;2.10;;;3.00;99.90;;;;;;5093176;28;20028;-71
2023/01/18 00:06:43;;;;;;;5.80;1.90;;;2.90;99.90;;;;;;5092545;28;20410;-71
2023/01/18 00:09:08;;;;;;;4.75;1.88;;;2.90;99.90;;;;;;5087618;28;20511;-71
2023/01/18 00:11:34;;;;;;;4.03;1.75;;;2.90;99.90;;;;;;5042665;28;20033;-71
2023/01/18 00:14:01;;;;;;;8.98;2.22;;;2.90;99.90;;;;;;5068505;28;20024;-72
2023/01/18 00:16:29;;;;;;;1.92;1.35;;;2.90;99.90;;;;;;5068533;28;20139;-70
2023/01/18 00:18:56;;;;;;;9.07;1.67;;;2.90;99.90;;;;;;5072536;28;20078;-71
2023/01/18 00:21:23;;;;;;;4.82;1.80;;;2.90;99.90;;;;;;5065040;28;20728;-70
2023/01/18 00:23:50;;;;;;;7.00;1.85;;;2.90;99.90;;;;;;5064805;28;20036;-71
2023/01/18 00:26:15;;;;;;;6.93;2.20;;;3.00;99.90;;;;;;5057051;28;20029;-71
2023/01/18 00:28:42;;;;;;;4.65;1.70;;;3.00;99.90;;;;;;5066703;28;20087;-70
2023/01/18 00:31:13;;;;;;;5.45;1.83;;;3.00;99.90;;;;;;5072017;28;20038;-69
2023/01/18 00:33:42;;;;;;;6.18;1.88;;;3.10;99.90;;;;;;5060511;28;20395;-71
2023/01/18 00:36:08;;;;;;;5.28;1.98;;;3.10;99.90;;;;;;5062477;28;20051;-70
2023/01/18 01:26:33;;;;;;;8.05;2.60;;;3.00;99.90;;;;;;5051210;28;20128;-70
2023/01/18 01:28:59;;;;;;;8.38;2.50;;;3.00;99.90;;;;;;5051251;28;20052;-70
2023/01/18 01:31:25;;;;;;;8.45;2.75;;;3.00;99.90;;;;;;5051418;28;20412;-70
2023/01/18 01:33:51;;;;;;;7.60;2.92;;;3.00;99.90;;;;;;5051660;28;20453;-69
2023/01/18 01:36:19;;;;;;;8.13;2.83;;;3.00;99.90;;;;;;5051866;28;20029;-70
2023/01/18 01:38:45;;;;;;;6.30;2.78;;;3.10;99.90;;;;;;5051888;28;20036;-70
2023/01/18 01:41:14;;;;;;;8.65;2.92;;;3.10;99.90;;;;;;5052170;28;20031;-69
2023/01/18 01:43:39;;;;;;;8.65;3.30;;;3.10;99.90;;;;;;5052117;28;20029;-69
2023/01/18 01:46:30;;;;;;;5.40;2.40;;;3.10;99.90;;;;;;5051904;28;20044;-70
2023/01/18 01:49:06;;;;;;;7.40;2.72;;;3.10;99.90;;;;;;5055192;28;20025;-70
2023/01/18 01:51:35;;;;;;;6.80;2.80;;;3.10;99.90;;;;;;5055717;28;20025;-69
2023/01/18 01:54:07;;;;;;;7.15;3.10;;;3.10;99.90;;;;;;5055807;28;20017;-70
2023/01/18 01:56:33;;;;;;;6.22;2.60;;;3.10;99.90;;;;;;5055806;28;20033;-70
2023/01/18 01:59:01;;;;;;;8.05;2.35;;;3.10;99.90;;;;;;5062248;28;20048;-71
2023/01/18 02:01:28;;;;;;;9.65;2.63;;;3.10;99.90;;;;;;5042056;28;20175;-69
2023/01/18 02:03:57;;;;;;;6.80;2.47;;;3.10;99.90;;;;;;5067629;28;20468;-71
2023/01/18 02:06:30;;;;;;;8.00;3.15;;;3.10;99.90;;;;;;5066865;28;20036;-70
2023/01/18 02:09:00;;;;;;;7.63;2.90;;;3.10;99.90;;;;;;5064182;28;20465;-70
2023/01/18 02:11:25;;;;;;;10.27;3.25;;;3.10;99.90;;;;;;5068590;28;20545;-68
2023/01/18 02:13:53;;;;;;;8.43;2.80;;;3.10;99.90;;;;;;5070196;28;20055;-69
2023/01/18 02:16:42;;;;;;;9.35;2.78;;;3.10;99.90;;;;;;5056125;28;20041;-71
2023/01/18 02:19:49;;;;;;;10.82;3.40;;;3.10;99.90;;;;;;5054773;28;20636;-70
2023/01/18 02:22:43;;;;;;;7.55;2.85;;;3.10;99.90;;;;;;5041212;28;20039;-69
2023/01/18 02:25:30;;;;;;;10.75;3.00;;;3.10;99.90;;;;;;5061555;28;20178;-69
2023/01/18 02:28:09;;;;;;;9.25;3.17;;;3.10;99.90;;;;;;5068127;28;20771;-70
2023/01/18 02:30:43;;;;;;;8.35;3.15;;;3.10;99.90;;;;;;5068751;28;20078;-70
2023/01/18 02:33:34;;;;;;;10.02;2.47;;;3.00;99.90;;;;;;5074411;28;20064;-69
2023/01/18 02:36:01;;;;;;;7.30;2.97;;;3.10;99.90;;;;;;5065060;28;20032;-70
2023/01/18 02:38:36;;;;;;;7.93;2.58;;;3.00;99.90;;;;;;5062773;28;20020;-70
2023/01/18 02:41:22;;;;;;;7.25;2.38;;;3.10;99.90;;;;;;5059307;28;20029;-68
2023/01/18 02:46:38;;;;;;;8.35;2.40;;;3.10;99.90;;;;;;5074551;28;20088;-70
2023/01/18 02:49:10;;;;;;;8.43;2.97;;;3.10;99.90;;;;;;5056701;28;20052;-69
2023/01/18 02:51:36;;;;;;;12.93;2.95;;;3.10;99.90;;;;;;5053509;28;20507;-69
2023/01/18 02:54:06;;;;;;;5.63;2.40;;;3.10;99.90;;;;;;5064417;28;20110;-70
2023/01/18 02:56:38;;;;;;;8.45;2.47;;;3.10;99.90;;;;;;5069715;28;20025;-69
2023/01/18 02:59:19;;;;;;;6.80;2.20;;;3.20;99.90;;;;;;5071802;28;20105;-70
2023/01/18 03:01:57;;;;;;;7.07;2.42;;;3.20;99.90;;;;;;5072176;28;20032;-69
2023/01/18 03:04:40;;;;;;;6.28;2.10;;;3.10;99.90;;;;;;5073206;28;20040;-68
2023/01/18 03:07:19;;;;;;;9.18;2.72;;;3.10;99.90;;;;;;5071863;28;20119;-70
2023/01/18 03:09:45;;;;;;;9.35;2.53;;;3.20;99.90;;;;;;5055460;28;20558;-70
2023/01/18 03:12:46;;;;;;;8.45;2.28;;;3.20;99.90;;;;;;5069610;28;20056;-70
2023/01/18 03:15:19;;;;;;;7.78;2.20;;;3.20;99.90;;;;;;5039054;28;20037;-70
2023/01/18 03:17:53;;;;;;;9.73;2.63;;;3.20;99.90;;;;;;5073230;28;20079;-70
2023/01/18 03:20:26;;;;;;;3.58;2.08;;;3.20;99.90;;;;;;5064885;28;20082;-70
2023/01/18 03:25:53;;;;;;;8.30;2.08;;;3.20;99.90;;;;;;5060511;28;20032;-68
2023/01/18 03:34:39;;;;;;;7.00;2.03;;;3.20;99.90;;;;;;5062809;28;20039;-69
2023/01/18 03:37:10;;;;;;;4.35;1.60;;;3.20;99.90;;;;;;5004190;28;20112;-68
2023/01/18 03:39:50;;;;;;;4.82;1.50;;;3.20;99.90;;;;;;4997214;28;20506;-70
2023/01/18 03:42:26;;;;;;;3.78;1.70;;;3.20;99.90;;;;;;5047553;28;20036;-69
2023/01/18 03:44:59;;;;;;;4.22;1.52;;;3.20;99.90;;;;;;5056876;28;20118;-69
2023/01/18 03:47:24;;;;;;;7.00;1.70;;;3.20;99.90;;;;;;5058512;28;20017;-70
2023/01/18 03:49:50;;;;;;;8.52;1.95;;;3.20;99.90;;;;;;5066112;28;20484;-70
2023/01/18 03:52:28;;;;;;;4.70;1.60;;;3.20;99.90;;;;;;5046142;28;20472;-68
2023/01/18 03:55:22;;;;;;;3.67;1.50;;;3.20;99.90;;;;;;5058273;28;20388;-69
2023/01/18 03:57:56;;;;;;;3.30;1.20;;;3.20;99.90;;;;;;5053786;28;20044;-69
2023/01/18 04:00:22;;;;;;;11.73;2.22;;;3.20;99.90;;;;;;5061509;28;20021;-69
2023/01/18 04:02:49;;;;;;;3.33;1.50;;;3.20;99.90;;;;;;5073098;28;20024;-68
2023/01/18 04:05:16;;;;;;;3.33;1.70;;;3.20;99.90;;;;;;5073433;28;20065;-69
2023/01/18 04:07:42;;;;;;;5.53;1.50;;;3.30;99.90;;;;;;5072830;28;20024;-70
2023/01/18 04:10:08;;;;;;;3.00;1.60;;;3.30;99.90;;;;;;5073004;28;20104;-68
2023/01/18 04:12:34;;;;;;;6.10;1.30;;;3.30;99.90;;;;;;5064820;28;20029;-68
2023/01/18 04:15:00;;;;;;;2.83;1.55;;;3.30;99.90;;;;;;5053347;28;20369;-68
2023/01/18 04:17:26;;;;;;;2.75;1.60;;;3.30;99.90;;;;;;5053174;28;20080;-69
2023/01/18 04:19:52;;;;;;;6.18;1.20;;;3.20;99.90;;;;;;5053029;28;20064;-68
2023/01/18 04:22:18;;;;;;;5.72;1.50;;;3.30;99.90;;;;;;5053503;28;20079;-68
2023/01/18 04:24:44;;;;;;;4.40;1.60;;;3.20;99.90;;;;;;5055860;28;20469;-70
2023/01/18 04:27:09;;;;;;;4.85;1.80;;;3.30;99.90;;;;;;5073064;28;20039;-70
2023/01/18 04:29:35;;;;;;;3.35;1.70;;;3.30;99.90;;;;;;5073405;28;20115;-70
2023/01/18 04:32:01;;;;;;;4.15;1.90;;;3.30;99.90;;;;;;5072974;28;20048;-71
2023/01/18 04:34:26;;;;;;;6.25;2.03;;;3.30;99.90;;;;;;5055052;28;20020;-69
2023/01/18 04:36:52;;;;;;;5.10;2.00;;;3.30;99.90;;;;;;5072705;28;20021;-70
2023/01/18 04:39:18;;;;;;;4.45;1.77;;;3.30;99.90;;;;;;5060590;28;20036;-68
2023/01/18 04:41:44;;;;;;;5.40;1.90;;;3.30;99.90;;;;;;5048957;28;20028;-69
2023/01/18 04:44:10;;;;;;;12.85;3.10;;;3.30;99.90;;;;;;5069181;28;20470;-69
2023/01/18 04:46:37;;;;;;;8.43;2.30;;;3.30;99.90;;;;;;5061847;28;20047;-69
2023/01/18 04:49:04;;;;;;;7.70;2.22;;;3.30;99.90;;;;;;5063599;28;20162;-69
2023/01/18 04:51:30;;;;;;;7.05;2.05;;;3.30;99.90;;;;;;5064605;28;20035;-69
2023/01/18 04:53:58;;;;;;;5.85;2.47;;;3.30;99.90;;;;;;5071778;28;20040;-69
2023/01/18 04:56:23;;;;;;;7.18;2.20;;;3.30;99.90;;;;;;5072350;28;20025;-69
2023/01/18 04:58:52;;;;;;;7.20;1.90;;;3.30;99.90;;;;;;5070042;28;20108;-69
2023/01/18 05:01:17;;;;;;;3.42;1.73;;;3.30;99.90;;;;;;5061760;28;20029;-69
2023/01/18 05:03:43;;;;;;;4.10;1.70;;;3.30;99.90;;;;;;5067563;28;20111;-68
2023/01/18 05:06:11;;;;;;;10.77;2.03;;;3.30;99.90;;;;;;5055680;28;20073;-69
2023/01/18 05:08:39;;;;;;;7.82;1.85;;;3.30;99.90;;;;;;5067209;28;20021;-69
2023/01/18 05:11:13;;;;;;;7.70;1.75;;;3.30;99.90;;;;;;5062237;28;20021;-68
2023/01/18 05:13:39;;;;;;;9.70;2.45;;;3.20;99.90;;;;;;5040894;28;20435;-69
2023/01/18 05:16:06;;;;;;;7.93;1.80;;;3.20;99.90;;;;;;5051028;28;20522;-68
2023/01/18 05:18:32;;;;;;;7.75;2.05;;;3.30;99.90;;;;;;5056136;28;20436;-69
2023/01/18 05:20:58;;;;;;;6.25;1.90;;;3.30;99.90;;;;;;5063651;28;20101;-68
2023/01/18 05:23:24;;;;;;;5.43;1.92;;;3.30;99.90;;;;;;5065129;28;20090;-69
2023/01/18 05:25:54;;;;;;;4.22;1.83;;;3.30;99.90;;;;;;5071924;28;20040;-69
2023/01/18 05:28:21;;;;;;;5.90;1.80;;;3.30;99.90;;;;;;5072080;28;20029;-68
2023/01/18 05:30:48;;;;;;;7.60;1.85;;;3.40;99.90;;;;;;5061648;28;20108;-68
2023/01/18 05:33:15;;;;;;;5.30;2.05;;;3.40;99.90;;;;;;5064385;28;20416;-68
2023/01/18 05:35:40;;;;;;;4.68;1.65;;;3.40;99.90;;;;;;5069106;28;20051;-68
2023/01/18 05:38:06;;;;;;;4.80;1.45;;;3.40;99.90;;;;;;5062140;28;20465;-68
2023/01/18 05:40:31;;;;;;;5.97;1.70;;;3.50;99.90;;;;;;5061207;28;20384;-67
2023/01/18 05:42:57;;;;;;;5.50;1.77;;;3.50;99.90;;;;;;5066422;28;20021;-67
2023/01/18 05:45:22;;;;;;;6.00;1.65;;;3.60;99.90;;;;;;5066531;28;20057;-68
2023/01/18 05:47:48;;;;;;;6.07;2.17;;;3.70;99.90;;;;;;5059357;28;20025;-68
2023/01/18 05:50:14;;;;;;;9.57;1.60;;;3.70;99.90;;;;;;5071190;28;20032;-67
2023/01/18 05:52:40;;;;;;;6.43;1.60;;;3.80;99.90;;;;;;5060652;28;20016;-67
2023/01/18 05:55:06;;;;;;;5.28;1.63;;;3.80;99.90;;;;;;5065504;28;20040;-68
2023/01/18 05:57:32;;;;;;;4.57;1.45;;;3.80;99.90;;;;;;5067763;28;20032;-67
2023/01/18 05:59:57;;;;;;;2.92;1.40;;;3.90;99.90;;;;;;5058082;28;20025;-67
2023/01/18 06:02:24;;;;;;;5.53;1.40;;;3.90;99.90;;;;;;5070951;28;20014;-66
2023/01/18 06:04:49;;;;;;;5.25;1.40;;;4.00;99.90;;;;;;5061890;28;20036;-68
2023/01/18 06:07:15;;;;;;;6.65;1.40;;;4.00;99.90;;;;;;5045846;28;20040;-67
2023/01/18 06:09:41;;;;;;;3.35;1.10;;;4.00;99.90;;;;;;5068786;28;20024;-67
2023/01/18 06:12:06;;;;;;;1.58;1.00;;;4.00;99.90;;;;;;5057926;28;20029;-67
2023/01/18 06:14:32;;;;;;;7.78;1.50;;;4.00;99.90;;;;;;5069886;28;20017;-68
2023/01/18 06:17:00;;;;;;;2.78;1.38;;;4.00;99.90;;;;;;5020749;28;1188058;-68
2023/01/18 06:19:26;;;;;;;7.90;1.40;;;4.00;99.90;;;;;;5063274;28;20039;-67
2023/01/18 06:21:53;;;;;;;5.72;1.63;;;4.00;99.90;;;;;;5071203;28;20107;-68
2023/01/18 06:24:18;;;;;;;3.53;1.90;;;3.90;99.90;;;;;;5058411;28;20535;-68
2023/01/18 06:26:44;;;;;;;7.22;1.48;;;3.90;99.90;;;;;;5062125;28;20127;-68
2023/01/18 06:29:10;;;;;;;4.43;1.48;;;3.90;99.90;;;;;;5064992;28;20086;-67
2023/01/18 06:31:35;;;;;;;7.63;1.90;;;3.80;99.90;;;;;;5068591;28;20099;-67
2023/01/18 06:34:08;;;;;;;7.35;1.80;;;3.80;99.90;;;;;;5058338;28;20096;-68
2023/01/18 06:36:36;;;;;;;5.05;1.70;;;3.70;99.90;;;;;;5070581;28;20112;-67
2023/01/18 06:39:02;;;;;;;4.22;1.90;;;3.70;99.90;;;;;;5064175;28;20036;-68
2023/01/18 06:41:28;;;;;;;6.00;1.98;;;3.80;99.90;;;;;;5063020;28;20453;-67
2023/01/18 06:43:53;;;;;;;5.57;1.98;;;3.70;99.90;;;;;;5052991;28;20029;-67
2023/01/18 06:46:19;;;;;;;7.47;1.85;;;3.80;99.90;;;;;;5058441;28;20103;-67
2023/01/18 06:48:45;;;;;;;5.40;1.80;;;3.70;99.90;;;;;;5068565;28;20448;-67
2023/01/18 06:51:11;;;;;;;3.88;2.00;;;3.70;99.90;;;;;;5064802;28;20025;-66
2023/01/18 06:53:37;;;;;;;3.95;1.85;;;3.70;99.90;;;;;;5061513;28;20381;-67
2023/01/18 06:56:03;;;;;;;9.38;3.05;;;3.70;99.90;;;;;;5071266;28;20033;-67
2023/01/18 06:58:32;;;;;;;7.65;2.47;;;3.70;99.90;;;;;;5059177;28;20028;-67
2023/01/18 07:00:58;;;;;;;5.75;1.73;;;3.70;99.90;;;;;;5066594;28;20029;-67
2023/01/18 07:03:25;;;;;;;8.75;2.28;;;3.70;99.90;;;;;;5067008;28;20067;-66
2023/01/18 07:05:55;;;;;;;4.35;1.85;;;3.80;99.90;;;;;;5059220;28;20044;-66
2023/01/18 07:08:22;;;;;;;4.85;2.00;;;3.80;99.90;;;;;;5070951;28;20571;-68
2023/01/18 07:10:49;;;;;;;8.45;2.28;;;3.80;99.90;;;;;;5043599;28;20434;-68
2023/01/18 07:13:14;;;;;;;4.93;1.77;;;3.80;99.90;;;;;;5063823;28;20476;-67
2023/01/18 07:15:40;;;;;;;7.35;1.70;;;3.80;99.90;;;;;;5068989;28;20067;-67
2023/01/18 07:18:05;;;;;;;6.63;1.55;;;3.80;99.90;;;;;;5057405;28;20485;-67
2023/01/18 07:20:31;;;;;;;6.28;1.60;;;3.90;99.90;;;;;;5069811;28;20033;-66
2023/01/18 07:22:57;;;;;;;3.42;1.70;;;3.90;99.90;;;;;;5062549;28;20021;-68
2023/01/18 07:25:24;;;;;;;4.00;1.73;;;3.90;99.90;;;;;;5071024;28;20117;-67
2023/01/18 07:27:50;;;;;;;3.15;1.50;;;4.00;99.90;;;;;;5074177;28;20036;-68
2023/01/18 07:30:16;;;;;;;1.33;1.23;;;4.10;99.90;;;;;;5057459;28;20466;-68
2023/01/18 07:32:49;;;;;;;3.80;1.40;;;4.10;99.90;;;;;;5068185;28;20029;-67
2023/01/18 07:35:21;;;;;;;3.80;1.77;;;4.10;99.90;;;;;;5064443;28;20388;-67
2023/01/18 07:37:49;;;;;;;9.05;1.88;;;4.10;99.90;;;;;;5059265;28;20036;-68
2023/01/18 07:40:14;;;;;;;6.32;1.70;;;4.10;99.90;;;;;;5070380;28;20040;-67
2023/01/18 07:42:40;;;;;;;8.15;1.50;;;4.10;99.90;;;;;;5059511;28;20040;-67
2023/01/18 07:45:07;;;;;;;3.85;1.83;;;4.10;99.90;;;;;;5063852;28;20044;-67
2023/01/18 07:47:34;;;;;;;2.28;1.50;;;4.20;99.90;;;;;;5067053;28;20452;-67
2023/01/18 07:50:00;;;;;;;5.93;1.77;;;4.20;99.90;;;;;;5057279;28;20179;-67
2023/01/18 07:52:25;;;;;;;6.70;2.47;;;4.30;99.90;;;;;;5069676;28;20497;-68
2023/01/18 07:54:51;;;;;;;3.17;1.27;;;4.30;99.90;;;;;;5060882;28;20063;-66
2023/01/18 07:57:17;;;;;;;5.03;1.33;;;4.30;99.90;;;;;;5062329;28;20125;-67
2023/01/18 07:59:42;;;;;;;7.03;1.10;;;4.30;99.90;;;;;;5060324;28;20078;-67
2023/01/18 08:02:11;;;;;;;6.05;1.48;;;4.30;99.90;;;;;;5061639;28;20021;-67
2023/01/18 08:04:38;;;;;;;9.88;2.00;;;4.30;99.90;;;;;;5062197;28;20024;-67
2023/01/18 08:07:04;;;;;;;2.45;1.20;;;4.20;99.90;;;;;;5064388;28;20067;-67
2023/01/18 08:09:29;;;;;;;4.00;1.45;;;4.20;99.90;;;;;;5065806;28;20051;-67
2023/01/18 08:11:55;;;;;;;5.45;1.33;;;4.20;99.90;;;;;;5070951;28;20032;-67
2023/01/18 08:14:20;;;;;;;4.45;1.50;;;4.20;99.90;;;;;;5056399;28;20032;-67
2023/01/18 08:16:46;;;;;;;6.35;1.60;;;4.20;99.90;;;;;;5073310;28;20048;-66
2023/01/18 08:19:12;;;;;;;7.90;1.88;;;4.20;99.90;;;;;;5071679;28;20028;-67
2023/01/18 08:21:38;;;;;;;6.10;1.20;;;4.20;99.90;;;;;;5071196;28;20036;-66
2023/01/18 08:24:04;;;;;;;4.28;1.45;;;4.20;99.90;;;;;;5072712;28;20074;-68
2023/01/18 08:26:30;;;;;;;3.25;1.17;;;4.20;99.90;;;;;;5071852;28;20043;-69
2023/01/18 08:28:56;;;;;;;5.22;1.08;;;4.30;99.90;;;;;;5053110;28;20067;-68
2023/01/18 08:31:22;;;;;;;9.98;1.98;;;4.30;99.90;;;;;;5053236;28;20060;-69
2023/01/18 08:33:48;;;;;;;5.80;1.27;;;4.40;99.90;;;;;;5056177;28;20052;-69
2023/01/18 08:36:19;;;;;;;9.07;1.63;;;4.50;99.90;;;;;;5072833;28;20047;-66
2023/01/18 08:38:54;;;;;;;2.13;1.20;;;4.60;99.90;;;;;;5052202;28;20028;-68
2023/01/18 08:41:20;;;;;;;6.57;1.50;;;4.80;99.90;;;;;;5059030;28;20020;-67
2023/01/18 08:43:49;;;;;;;8.15;1.70;;;4.90;99.90;;;;;;5053805;28;20480;-67
2023/01/18 08:46:15;;;;;;;1.58;0.90;;;5.00;99.90;;;;;;5072085;28;20127;-66
2023/01/18 08:48:42;;;;;;;4.65;1.33;;;5.10;99.90;;;;;;5071468;28;20075;-67
2023/01/18 08:51:08;;;;;;;5.70;1.30;;;5.10;99.90;;;;;;5070884;28;20031;-67
2023/01/18 08:53:34;;;;;;;5.90;1.42;;;5.10;99.90;;;;;;5072444;28;20029;-67
2023/01/18 08:56:03;;;;;;;4.85;0.95;;;5.10;99.90;;;;;;5066474;28;20031;-67
2023/01/18 08:58:30;;;;;;;2.13;1.20;;;5.10;99.90;;;;;;5052200;28;20078;-68
2023/01/18 09:00:56;;;;;;;3.05;1.10;;;5.10;99.90;;;;;;5056777;28;20049;-67
2023/01/18 09:03:22;;;;;;;5.05;1.52;;;5.20;99.90;;;;;;5071316;28;20107;-67
2023/01/18 09:05:48;;;;;;;4.88;1.10;;;5.30;99.90;;;;;;5068865;28;20135;-67
2023/01/18 09:08:14;;;;;;;3.67;0.77;;;5.30;99.90;;;;;;5052501;28;20118;-67
2023/01/18 09:10:39;;;;;;;7.30;2.10;;;5.30;99.90;;;;;;5053074;28;20119;-67
2023/01/18 09:13:05;;;;;;;5.53;2.25;;;5.30;99.90;;;;;;5052793;28;20558;-67
2023/01/18 09:15:31;;;;;;;4.30;1.20;;;5.20;99.90;;;;;;5052605;28;20039;-67
2023/01/18 09:17:57;;;;;;;7.65;1.10;;;5.20;99.90;;;;;;5058136;28;20099;-67
2023/01/18 09:20:24;;;;;;;6.40;1.10;;;5.20;99.90;;;;;;5052535;28;20017;-67
2023/01/18 09:22:50;;;;;;;5.25;2.60;;;5.30;99.90;;;;;;5050628;28;20074;-68
2023/01/18 09:25:17;;;;;;;6.57;2.00;;;5.20;99.90;;;;;;5052362;28;20423;-67
2023/01/18 09:27:43;;;;;;;7.28;1.63;;;5.30;99.90;;;;;;5036031;28;20445;-67
2023/01/18 09:30:09;;;;;;;4.55;1.30;;;5.40;99.90;;;;;;5032462;28;20398;-67
2023/01/18 09:32:35;;;;;;;5.47;1.27;;;5.40;99.90;;;;;;5032995;28;20048;-67
2023/01/18 09:35:01;;;;;;;4.57;1.00;;;5.40;99.90;;;;;;5032409;28;20029;-68
2023/01/18 09:37:27;;;;;;;3.83;1.15;;;5.40;99.90;;;;;;5044703;28;20107;-68
2023/01/18 09:39:52;;;;;;;1.85;0.73;;;5.50;99.90;;;;;;5072310;28;20425;-67
2023/01/18 09:42:26;;;;;;;6.45;1.00;;;5.60;99.90;;;;;;5060432;28;20406;-68
2023/01/18 09:44:55;;;;;;;5.65;0.95;;;5.70;99.90;;;;;;5052340;28;20030;-68
2023/01/18 09:47:27;;;;;;;3.00;1.10;;;5.80;99.90;;;;;;5041339;28;20041;-68
2023/01/18 09:49:57;;;;;;;5.03;0.93;;;6.10;99.90;;;;;;5033026;28;20036;-68
2023/01/18 09:52:49;;;;;;;1.77;0.73;;;6.40;99.90;;;;;;5032317;28;20022;-68
2023/01/18 09:55:48;;;;;;;6.65;0.90;;;6.70;99.90;;;;;;5032665;28;20055;-68
2023/01/18 09:58:35;;;;;;;7.38;1.77;;;7.10;99.90;;;;;;5032184;28;20029;-68
2023/01/18 10:01:19;;;;;;;4.35;1.02;;;7.60;99.90;;;;;;5044408;28;20108;-69
2023/01/18 10:04:06;;;;;;;6.95;1.40;;;7.80;99.90;;;;;;5052311;28;20083;-68
2023/01/18 10:06:43;;;;;;;6.50;1.13;;;7.70;99.90;;;;;;5035260;28;20041;-69
2023/01/18 10:09:15;;;;;;;8.77;1.10;;;7.70;99.90;;;;;;5032440;28;20508;-69
2023/01/18 10:12:19;;;;;;;8.05;1.15;;;8.00;99.90;;;;;;5051892;28;20041;-68
2023/01/18 10:14:53;;;;;;;4.40;1.30;;;8.80;99.90;;;;;;5055099;28;20524;-69
2023/01/18 10:17:21;;;;;;;5.65;1.17;;;9.80;99.90;;;;;;5043201;28;20362;-69
2023/01/18 10:19:48;;;;;;;8.13;1.10;;;10.50;99.90;;;;;;5055314;28;20033;-69
2023/01/18 10:22:35;;;;;;;5.05;1.23;;;10.80;99.60;;;;;;5056749;28;20029;-69
2023/01/18 10:25:03;;;;;;;7.78;1.17;;;10.70;99.70;;;;;;5055982;28;20041;-69
2023/01/18 10:27:34;;;;;;;5.97;1.08;;;10.50;99.60;;;;;;5056191;28;20032;-69
2023/01/18 10:30:19;;;;;;;5.30;1.08;;;9.90;99.90;;;;;;5058528;28;20041;-69
2023/01/18 10:32:52;;;;;;;8.00;1.48;;;9.40;99.90;;;;;;5075779;28;20521;-68
2023/01/18 10:35:37;;;;;;;4.32;1.30;;;8.90;99.90;;;;;;5069743;28;20049;-69
2023/01/18 10:38:07;;;;;;;12.73;3.00;;;8.60;99.90;;;;;;5055144;28;20036;-68
2023/01/18 10:40:35;;;;;;;6.63;1.25;;;8.40;99.90;;;;;;5061394;28;20063;-69
2023/01/18 10:43:03;;;;;;;6.95;1.40;;;8.10;99.90;;;;;;5075116;28;20083;-69
2023/01/18 10:45:33;;;;;;;10.73;2.17;;;8.10;99.90;;;;;;5072998;28;20123;-69
2023/01/18 10:48:18;;;;;;;7.68;2.42;;;8.00;99.90;;;;;;5071440;28;20037;-69
2023/01/18 10:50:50;;;;;;;5.47;1.65;;;8.30;99.90;;;;;;5064886;28;20061;-70
2023/01/18 10:53:25;;;;;;;4.75;1.65;;;8.80;99.90;;;;;;5064051;28;20032;-70
2023/01/18 10:55:55;;;;;;;4.63;1.15;;;8.70;99.90;;;;;;5063386;28;20495;-70
2023/01/18 10:58:27;;;;;;;5.22;1.08;;;8.50;99.90;;;;;;5064637;28;20049;-69
2023/01/18 11:00:54;;;;;;;3.45;1.23;;;8.20;99.90;;;;;;5063993;28;20109;-69
2023/01/18 11:03:20;;;;;;;6.28;1.50;;;7.90;99.90;;;;;;5064413;28;20025;-69
2023/01/18 11:05:46;;;;;;;8.85;1.15;;;7.90;99.90;;;;;;5044713;28;20136;-69
2023/01/18 11:08:24;;;;;;;6.07;1.38;;;7.70;99.90;;;;;;5065155;28;20099;-69
2023/01/18 11:11:01;;;;;;;6.45;1.40;;;7.70;99.90;;;;;;5063087;28;20028;-69
2023/01/18 11:13:32;;;;;;;5.28;1.10;;;7.70;99.90;;;;;;5062935;28;20028;-69
2023/01/18 11:16:04;;;;;;;5.50;1.08;;;7.60;99.90;;;;;;5064702;28;20020;-69
2023/01/18 11:18:30;;;;;;;4.53;1.15;;;7.60;99.90;;;;;;5065043;28;20040;-69
2023/01/18 11:20:56;;;;;;;6.63;1.30;;;7.70;99.90;;;;;;5061630;28;20167;-68
2023/01/18 11:23:24;;;;;;;2.78;1.13;;;7.60;99.90;;;;;;5047402;28;20075;-68
2023/01/18 11:26:03;;;;;;;11.98;1.30;;;7.60;99.90;;;;;;5062711;28;20396;-69
2023/01/18 11:28:39;;;;;;;5.20;0.88;;;7.50;99.90;;;;;;5062527;28;20024;-69
2023/01/18 11:31:27;;;;;;;4.88;0.95;;;7.60;99.90;;;;;;5061607;28;20029;-69
2023/01/18 11:33:57;;;;;;;2.72;0.88;;;7.70;99.90;;;;;;5061973;28;20029;-69
2023/01/18 11:36:39;;;;;;;3.78;0.93;;;7.70;99.90;;;;;;5064146;28;20037;-69
2023/01/18 11:39:30;;;;;;;2.65;0.82;;;7.60;99.90;;;;;;5063700;28;20362;-69
2023/01/18 11:42:09;;;;;;;5.20;1.00;;;7.60;99.90;;;;;;5063584;28;20041;-69
2023/01/18 11:44:42;;;;;;;4.85;1.48;;;7.60;99.90;;;;;;5063533;28;20025;-70
2023/01/18 11:47:23;;;;;;;6.13;1.35;;;7.70;99.90;;;;;;5063274;28;20036;-69
2023/01/18 11:50:00;;;;;;;5.53;1.02;;;7.90;99.90;;;;;;5065306;28;20036;-69
2023/01/18 11:53:05;;;;;;;5.55;1.00;;;7.90;99.90;;;;;;5064024;28;20098;-69
2023/01/18 11:55:33;;;;;;;3.75;1.20;;;7.90;99.90;;;;;;5063274;28;20107;-69
2023/01/18 11:57:59;;;;;;;7.65;1.40;;;8.20;99.90;;;;;;5063377;28;20495;-69
2023/01/18 12:00:30;;;;;;;5.25;1.40;;;8.60;99.90;;;;;;5062621;28;20024;-69
2023/01/18 12:03:19;;;;;;;10.95;1.55;;;8.60;99.90;;;;;;5062781;28;20021;-69
2023/01/18 12:05:53;;;;;;;5.03;1.02;;;8.50;99.90;;;;;;5062424;28;20063;-69
2023/01/18 12:08:53;;;;;;;7.95;1.15;;;8.40;99.90;;;;;;5063956;28;20397;-70
2023/01/18 12:11:25;;;;;;;6.32;1.40;;;8.30;99.90;;;;;;5062698;28;20025;-70
2023/01/18 12:14:02;;;;;;;5.93;1.20;;;8.20;99.90;;;;;;5042680;28;20028;-70
2023/01/18 12:16:58;;;;;;;8.00;1.35;;;8.40;99.90;;;;;;5063744;28;20056;-70
2023/01/18 12:19:40;;;;;;;3.28;1.40;;;8.40;99.90;;;;;;5061306;28;20032;-70
2023/01/18 12:22:22;;;;;;;7.97;1.58;;;8.70;99.90;;;;;;5063826;28;20396;-70
2023/01/18 12:24:51;;;;;;;;;;;8.80;99.90;;;;;;5061372;28;20025;-70
2023/01/18 12:27:41;;;;;;;3.80;1.00;;;9.00;99.90;;;;;;5057251;28;19979;-70
2023/01/18 12:30:21;;;;;;;8.45;1.30;;;9.00;99.90;;;;;;5081905;28;20021;-69
2023/01/18 12:32:54;;;;;;;4.53;1.00;;;8.90;99.90;;;;;;5072604;28;20107;-70
2023/01/18 12:35:41;;;;;;;4.70;1.00;;;8.70;99.90;;;;;;5070870;28;20429;-70
2023/01/18 12:38:23;;;;;;;6.60;1.25;;;8.40;99.90;;;;;;5060690;28;20511;-73
2023/01/18 12:40:55;;;;;;;5.13;0.98;;;8.30;99.90;;;;;;5052993;28;20028;-70
2023/01/18 12:43:43;;;;;;;6.05;1.10;;;8.30;99.90;;;;;;5058819;28;20153;-70
2023/01/18 12:46:33;;;;;;;6.90;1.20;;;8.10;99.90;;;;;;5072430;28;20064;-70
2023/01/18 12:49:10;;;;;;;4.15;1.38;;;8.00;99.90;;;;;;5071944;28;20035;-72
2023/01/18 12:51:37;;;;;;;3.70;1.40;;;7.90;99.90;;;;;;5072766;28;20017;-70
2023/01/18 12:54:27;;;;;;;5.40;1.42;;;7.90;99.90;;;;;;5072490;28;20036;-70
2023/01/18 12:56:56;;;;;;;9.32;1.98;;;7.80;99.90;;;;;;5058714;28;20074;-70
2023/01/18 12:59:27;;;;;;;3.30;1.00;;;7.70;99.90;;;;;;5072496;28;20077;-70
2023/01/18 13:02:20;;;;;;;9.82;1.73;;;7.60;99.90;;;;;;5072057;28;20029;-70
2023/01/18 13:04:54;;;;;;;7.03;1.45;;;7.50;99.90;;;;;;5072884;28;20021;-70
2023/01/18 13:07:28;;;;;;;13.57;2.53;;;7.40;99.90;;;;;;5071968;28;20488;-70
2023/01/18 13:09:55;;;;;;;4.35;1.20;;;7.40;99.90;;;;;;5072160;28;20376;-72
2023/01/18 13:12:21;;;;;;;8.88;1.40;;;7.40;99.90;;;;;;5072464;28;20035;-72
2023/01/18 13:15:02;;;;;;;6.30;1.55;;;7.30;99.90;;;;;;5070334;28;20501;-69
2023/01/18 13:17:37;;;;;;;5.70;0.82;;;7.30;99.90;;;;;;5061245;28;20498;-72
2023/01/18 13:20:06;;;;;;;11.13;1.60;;;7.20;99.90;;;;;;5072403;28;20028;-70
2023/01/18 13:23:05;;;;;;;6.18;1.40;;;7.10;99.90;;;;;;5072197;28;20025;-70
2023/01/18 13:25:47;;;;;;;6.85;1.45;;;7.10;99.90;;;;;;5071529;28;20550;-70
2023/01/18 13:28:19;;;;;;;8.18;2.15;;;7.10;99.90;;;;;;5071709;28;20029;-70
2023/01/18 13:30:57;;;;;;;9.20;2.33;;;7.10;99.90;;;;;;5074386;28;20043;-70
2023/01/18 13:33:26;;;;;;;7.57;1.40;;;7.00;99.90;;;;;;5072202;28;20024;-70
2023/01/18 13:35:56;;;;;;;5.60;1.75;;;7.00;99.90;;;;;;5071868;28;20025;-70
2023/01/18 13:38:26;;;;;;;8.35;2.25;;;7.00;99.90;;;;;;5065242;28;20473;-70
2023/01/18 13:40:54;;;;;;;10.60;1.45;;;6.90;99.90;;;;;;5067308;28;20024;-69
2023/01/18 13:43:32;;;;;;;6.47;1.10;;;6.90;99.90;;;;;;5069215;28;20074;-70
2023/01/18 13:46:03;;;;;;;3.53;1.02;;;6.90;99.90;;;;;;5070308;28;20033;-70
2023/01/18 13:48:49;;;;;;;7.25;1.33;;;6.90;99.90;;;;;;5071022;28;20041;-70
2023/01/18 13:51:56;;;;;;;6.75;1.40;;;6.90;99.90;;;;;;5066953;28;20028;-70
2023/01/18 13:54:21;;;;;;;5.82;1.30;;;6.90;99.90;;;;;;5064975;28;20017;-70
2023/01/18 13:57:03;;;;;;;4.75;1.23;;;7.00;99.90;;;;;;5057424;28;20043;-70
2023/01/18 13:59:34;;;;;;;12.48;1.63;;;6.90;99.90;;;;;;5065059;28;20029;-70
2023/01/18 14:02:13;;;;;;;8.03;1.70;;;7.00;99.90;;;;;;5070128;28;20040;-70
2023/01/18 14:04:38;;;;;;;9.18;1.88;;;7.00;99.90;;;;;;5058773;28;20099;-69
2023/01/18 14:07:06;;;;;;;6.50;1.70;;;7.00;99.90;;;;;;5075349;28;20125;-71
2023/01/18 14:09:40;;;;;;;7.28;1.30;;;7.00;99.90;;;;;;5065526;28;20033;-72
2023/01/18 14:12:06;;;;;;;6.82;1.83;;;7.00;99.90;;;;;;5056632;28;20029;-70
2023/01/18 14:14:50;;;;;;;8.23;1.88;;;6.90;99.90;;;;;;5057926;28;20097;-70
2023/01/18 14:17:15;;;;;;;8.45;1.67;;;6.90;99.90;;;;;;5065920;28;20434;-70
2023/01/18 14:19:47;;;;;;;5.22;1.45;;;6.80;99.90;;;;;;5066642;28;20074;-69